Time;durP1;ratioP1;P1;durP2;ratioP2;P2;SDS_P1;SDS_P2;PMS_P1;PMS_P2;Temp;Humidity;BMP_temperature;BMP_pressure;BME280_temperature;BME280_humidity;BME280_pressure;Samples;Min_cycle;Max_cycle;Signal;HPM_P1;HPM_P2
2022/10/11 00:01:04;;;;;;;14.75;8.32;;;11.20;99.90;;;;;;5005044;28;20236;-82
2022/10/11 00:03:53;;;;;;;17.35;8.90;;;11.20;99.90;;;;;;5030006;28;20229;-82
2022/10/11 00:06:42;;;;;;;18.50;8.65;;;11.30;99.90;;;;;;5005816;28;20221;-83
2022/10/11 00:09:31;;;;;;;16.15;8.38;;;11.20;99.90;;;;;;5003884;28;20222;-82
2022/10/11 00:12:20;;;;;;;15.32;8.25;;;11.10;99.90;;;;;;5001818;28;20242;-82
2022/10/11 00:15:14;;;;;;;15.00;8.27;;;11.10;99.90;;;;;;5002599;28;20222;-83
2022/10/11 00:18:03;;;;;;;13.90;8.40;;;11.10;99.90;;;;;;5001894;28;20210;-78
2022/10/11 00:21:02;;;;;;;14.45;8.65;;;11.00;99.90;;;;;;5007287;28;20360;-84
2022/10/11 00:23:51;;;;;;;16.38;9.13;;;11.00;99.90;;;;;;4993982;28;20230;-82
2022/10/11 00:26:40;;;;;;;15.68;8.18;;;11.00;99.90;;;;;;4999476;28;20799;-82
2022/10/11 00:29:34;;;;;;;14.18;8.07;;;11.00;99.90;;;;;;5013365;28;20234;-81
2022/10/11 00:32:24;;;;;;;18.48;8.75;;;11.00;99.90;;;;;;5009759;28;21158;-80
2022/10/11 00:35:13;;;;;;;16.35;8.52;;;11.10;99.90;;;;;;4997265;28;20760;-82
2022/10/11 00:38:02;;;;;;;15.52;8.57;;;10.90;99.90;;;;;;5000990;28;20480;-81
2022/10/11 00:40:50;;;;;;;15.50;8.63;;;10.90;99.90;;;;;;4995931;28;20588;-82
2022/10/11 00:43:40;;;;;;;15.02;8.40;;;11.00;99.90;;;;;;5001317;28;20321;-81
2022/10/11 00:46:33;;;;;;;15.07;8.20;;;10.90;99.90;;;;;;5009915;28;20274;-82
2022/10/11 00:49:34;;;;;;;14.77;9.07;;;11.00;99.90;;;;;;5000239;28;20218;-82
2022/10/11 00:52:30;;;;;;;18.98;8.93;;;10.90;99.90;;;;;;4997718;28;20269;-82
2022/10/11 00:55:22;;;;;;;17.00;9.00;;;10.90;99.90;;;;;;5024000;28;20230;-81
2022/10/11 00:58:12;;;;;;;17.45;8.77;;;10.90;99.90;;;;;;5009533;28;20226;-81
2022/10/11 01:01:01;;;;;;;16.02;8.50;;;10.90;99.90;;;;;;4997017;28;20284;-81
2022/10/11 01:03:50;;;;;;;15.23;8.50;;;10.90;99.90;;;;;;5003303;28;20815;-81
2022/10/11 01:06:41;;;;;;;15.10;9.27;;;10.90;99.90;;;;;;5001642;28;20256;-80
2022/10/11 01:09:30;;;;;;;17.48;8.73;;;10.80;99.90;;;;;;5001968;28;20229;-81
2022/10/11 01:12:23;;;;;;;16.95;9.45;;;10.90;99.90;;;;;;5001250;28;20222;-80
2022/10/11 01:15:16;;;;;;;16.40;9.23;;;10.80;99.90;;;;;;4999974;28;20863;-83
2022/10/11 01:18:12;;;;;;;17.27;8.95;;;10.80;99.90;;;;;;4988197;28;20222;-83
2022/10/11 01:21:07;;;;;;;18.23;8.77;;;10.80;99.90;;;;;;5002345;28;20312;-83
2022/10/11 01:24:34;;;;;;;16.90;9.32;;;10.70;99.90;;;;;;5033053;28;20226;-83
2022/10/11 01:27:38;;;;;;;17.02;9.65;;;10.80;99.90;;;;;;5004995;28;20360;-84
2022/10/11 01:30:30;;;;;;;16.45;8.98;;;10.80;99.90;;;;;;5015014;28;20229;-83
2022/10/11 01:33:31;;;;;;;13.57;9.30;;;10.80;99.90;;;;;;4983313;28;20230;-84
2022/10/11 01:36:28;;;;;;;16.20;8.93;;;10.80;99.90;;;;;;5027204;28;20273;-84
2022/10/11 01:39:23;;;;;;;20.60;9.98;;;10.90;99.90;;;;;;5001455;28;20227;-86
2022/10/11 01:42:13;;;;;;;15.73;8.75;;;10.90;99.90;;;;;;5001619;28;20645;-86
2022/10/11 01:45:02;;;;;;;16.90;9.27;;;10.80;99.90;;;;;;5000070;28;20218;-86
2022/10/11 01:48:07;;;;;;;15.18;9.85;;;10.80;99.90;;;;;;4999211;28;20689;-81
2022/10/11 01:50:57;;;;;;;13.82;9.95;;;10.70;99.90;;;;;;4998838;28;20222;-81
2022/10/11 01:54:04;;;;;;;17.17;9.27;;;10.80;99.90;;;;;;5002740;28;20643;-81
2022/10/11 01:57:13;;;;;;;19.92;9.48;;;10.80;99.90;;;;;;5003943;28;20222;-82
2022/10/11 02:00:10;;;;;;;13.65;9.07;;;10.70;99.90;;;;;;5013058;28;21040;-80
2022/10/11 02:03:19;;;;;;;16.05;9.70;;;10.80;99.90;;;;;;5001984;28;20345;-80
2022/10/11 02:06:12;;;;;;;13.77;9.10;;;10.70;99.90;;;;;;4998757;28;20226;-81
2022/10/11 02:09:11;;;;;;;17.00;9.30;;;10.70;99.90;;;;;;5000977;28;20245;-79
2022/10/11 02:12:05;;;;;;;18.80;9.70;;;10.70;99.90;;;;;;4997705;28;20257;-83
2022/10/11 02:14:56;;;;;;;19.42;9.57;;;10.70;99.90;;;;;;5022362;28;20250;-85
2022/10/11 02:17:49;;;;;;;16.85;9.57;;;10.80;99.90;;;;;;4995009;28;20229;-84
2022/10/11 02:20:41;;;;;;;15.93;9.18;;;10.80;99.90;;;;;;4999330;28;20238;-82
2022/10/11 02:23:33;;;;;;;18.08;9.70;;;10.70;99.90;;;;;;4998946;28;20710;-80
2022/10/11 02:26:24;;;;;;;18.10;9.70;;;10.80;99.90;;;;;;4996260;28;20852;-79
2022/10/11 02:29:16;;;;;;;17.92;9.82;;;10.70;99.90;;;;;;4994369;28;20233;-80
2022/10/11 02:32:07;;;;;;;16.02;9.48;;;10.70;99.90;;;;;;5021838;28;20249;-79
2022/10/11 02:34:57;;;;;;;17.25;9.45;;;10.80;99.90;;;;;;5012871;28;20234;-81
2022/10/11 02:37:57;;;;;;;16.02;9.73;;;10.80;99.90;;;;;;4997588;28;20229;-81
2022/10/11 02:40:50;;;;;;;15.95;9.88;;;10.80;99.90;;;;;;4998167;28;20253;-82
2022/10/11 02:43:43;;;;;;;21.50;10.25;;;10.90;99.90;;;;;;4998944;28;20237;-82
2022/10/11 02:46:33;;;;;;;16.40;9.95;;;10.80;99.90;;;;;;5001406;28;20238;-82
2022/10/11 02:49:21;;;;;;;15.40;9.55;;;10.80;99.90;;;;;;5016158;28;20911;-82
2022/10/11 02:52:10;;;;;;;17.40;9.93;;;10.80;99.90;;;;;;5001618;28;20330;-82
2022/10/11 02:55:00;;;;;;;17.75;10.57;;;10.90;99.90;;;;;;4994987;28;20246;-82
2022/10/11 02:57:49;;;;;;;17.83;10.20;;;10.90;99.90;;;;;;4999365;28;20300;-81
2022/10/11 03:00:37;;;;;;;16.38;9.88;;;10.80;99.90;;;;;;4998501;28;20230;-82
2022/10/11 03:03:26;;;;;;;18.60;10.18;;;10.80;99.90;;;;;;5006404;28;20233;-82
2022/10/11 03:06:15;;;;;;;17.80;10.38;;;10.90;99.90;;;;;;4998410;28;20381;-82
2022/10/11 03:09:08;;;;;;;18.42;9.65;;;10.80;99.90;;;;;;5003623;28;20233;-82
2022/10/11 03:11:58;;;;;;;18.98;10.50;;;10.80;99.90;;;;;;5000705;28;20589;-82
2022/10/11 03:14:46;;;;;;;18.75;10.60;;;10.80;99.90;;;;;;5023916;28;20233;-82
2022/10/11 03:17:35;;;;;;;20.08;10.45;;;10.80;99.90;;;;;;4999552;28;20218;-82
2022/10/11 03:20:25;;;;;;;17.73;10.30;;;10.90;99.90;;;;;;4997747;28;20222;-82
2022/10/11 03:23:14;;;;;;;14.68;9.75;;;10.90;99.90;;;;;;5002210;28;20262;-83
2022/10/11 03:26:03;;;;;;;19.42;10.27;;;10.90;99.90;;;;;;5003876;28;20235;-80
2022/10/11 03:28:54;;;;;;;19.15;10.70;;;11.00;99.90;;;;;;4999698;28;20257;-82
2022/10/11 03:31:42;;;;;;;19.05;10.23;;;11.00;99.90;;;;;;4986093;28;20218;-83
2022/10/11 03:34:31;;;;;;;16.27;10.00;;;10.90;99.90;;;;;;5000693;28;20245;-83
2022/10/11 03:37:20;;;;;;;15.98;10.38;;;10.90;99.90;;;;;;4996891;28;20253;-83
2022/10/11 03:40:10;;;;;;;16.30;10.85;;;11.00;99.90;;;;;;5002050;28;20233;-84
2022/10/11 03:42:58;;;;;;;17.38;9.85;;;11.00;99.90;;;;;;4999660;28;20234;-84
2022/10/11 03:45:49;;;;;;;16.23;10.52;;;11.00;99.90;;;;;;5001243;28;20226;-85
2022/10/11 03:48:37;;;;;;;18.50;10.57;;;11.10;99.90;;;;;;5013307;28;20229;-85
2022/10/11 03:51:27;;;;;;;18.55;10.73;;;11.10;99.90;;;;;;4999586;28;20697;-84
2022/10/11 03:54:15;;;;;;;14.70;10.43;;;11.20;99.90;;;;;;4994662;28;20233;-84
2022/10/11 03:57:04;;;;;;;18.48;10.88;;;11.30;99.90;;;;;;4996025;28;20668;-84
2022/10/11 03:59:53;;;;;;;18.98;10.05;;;11.20;99.90;;;;;;4987454;28;20214;-83
2022/10/11 04:02:43;;;;;;;17.00;10.50;;;11.30;99.90;;;;;;5002162;28;20218;-83
2022/10/11 04:05:32;;;;;;;16.77;10.70;;;11.30;99.90;;;;;;4999023;28;20222;-82
2022/10/11 04:08:21;;;;;;;14.18;10.23;;;;;;;;;;5001844;28;20226;-86
2022/10/11 04:11:09;;;;;;;17.52;10.77;;;11.30;99.90;;;;;;5031766;28;20226;-85
2022/10/11 04:13:58;;;;;;;23.13;10.85;;;11.30;99.90;;;;;;4989177;28;20306;-84
2022/10/11 04:16:47;;;;;;;19.38;10.85;;;11.30;99.90;;;;;;4983114;28;20222;-86
2022/10/11 04:19:37;;;;;;;18.60;10.70;;;11.20;99.90;;;;;;5027712;28;20229;-85
2022/10/11 04:22:26;;;;;;;17.58;10.32;;;11.30;99.90;;;;;;4998389;28;20601;-85
2022/10/11 04:25:15;;;;;;;18.25;11.07;;;11.20;99.90;;;;;;5000009;28;20218;-84
2022/10/11 04:28:04;;;;;;;18.67;10.70;;;11.10;99.90;;;;;;5002435;28;20230;-85
2022/10/11 04:30:52;;;;;;;16.75;11.07;;;11.00;99.90;;;;;;5008140;28;20230;-79
2022/10/11 04:33:41;;;;;;;17.40;10.77;;;11.00;99.90;;;;;;4988221;28;20218;-81
2022/10/11 04:36:32;;;;;;;19.80;11.48;;;11.10;99.90;;;;;;5002603;28;20230;-81
2022/10/11 04:39:21;;;;;;;20.40;11.90;;;11.10;99.90;;;;;;5031850;28;20218;-84
2022/10/11 04:42:10;;;;;;;17.70;11.77;;;11.10;99.90;;;;;;5011516;28;20229;-84
2022/10/11 04:44:59;;;;;;;19.10;11.55;;;11.20;99.90;;;;;;4999252;28;20225;-83
2022/10/11 04:47:48;;;;;;;21.67;12.15;;;11.20;99.90;;;;;;5004486;28;20218;-84
2022/10/11 04:50:37;;;;;;;19.33;11.20;;;11.20;99.90;;;;;;5002319;28;20230;-83
2022/10/11 04:53:29;;;;;;;17.48;11.07;;;11.20;99.90;;;;;;4996953;28;20218;-83
2022/10/11 04:56:18;;;;;;;18.38;11.73;;;11.20;99.90;;;;;;5006083;28;20219;-83
2022/10/11 04:59:07;;;;;;;15.75;11.15;;;11.20;99.90;;;;;;5029062;28;20233;-83
2022/10/11 05:01:56;;;;;;;23.10;12.65;;;11.10;99.90;;;;;;5002724;28;20222;-83
2022/10/11 05:04:45;;;;;;;22.27;12.05;;;11.10;99.90;;;;;;4989217;28;20233;-84
2022/10/11 05:07:34;;;;;;;19.85;11.55;;;11.10;99.90;;;;;;5017205;28;20227;-83
2022/10/11 05:10:24;;;;;;;17.88;12.00;;;11.20;99.90;;;;;;5004227;28;20661;-82
2022/10/11 05:13:13;;;;;;;17.20;11.75;;;11.20;99.90;;;;;;4989486;28;20230;-82
2022/10/11 05:16:02;;;;;;;20.42;11.45;;;11.20;99.90;;;;;;5000651;28;20239;-82
2022/10/11 05:19:01;;;;;;;23.92;12.77;;;11.20;99.90;;;;;;5001076;28;20237;-82
2022/10/11 05:21:49;;;;;;;24.65;12.63;;;11.20;99.90;;;;;;5002803;28;20541;-81
2022/10/11 05:24:38;;;;;;;22.08;12.32;;;11.10;99.90;;;;;;5002676;28;20226;-81
2022/10/11 05:27:28;;;;;;;17.70;12.65;;;11.10;99.90;;;;;;5001778;28;21000;-81
2022/10/11 05:30:17;;;;;;;20.27;12.65;;;11.20;99.90;;;;;;4999399;28;20229;-84
2022/10/11 05:33:06;;;;;;;18.55;12.35;;;11.20;99.90;;;;;;5002028;28;20222;-81
2022/10/11 05:35:54;;;;;;;31.42;14.45;;;11.20;99.90;;;;;;5001003;28;20237;-82
2022/10/11 05:38:44;;;;;;;32.25;14.50;;;11.20;99.90;;;;;;4999694;28;21414;-81
2022/10/11 05:41:32;;;;;;;26.65;14.43;;;11.20;99.90;;;;;;4986104;28;20313;-80
2022/10/11 05:44:23;;;;;;;25.05;14.43;;;11.30;99.90;;;;;;5002034;28;20234;-81
2022/10/11 05:47:12;;;;;;;27.42;14.18;;;11.30;99.90;;;;;;4998465;28;20265;-83
2022/10/11 05:50:00;;;;;;;26.08;13.73;;;11.30;99.90;;;;;;5016947;28;20894;-82
2022/10/11 05:52:49;;;;;;;24.88;14.90;;;11.30;99.90;;;;;;4997354;28;20222;-80
2022/10/11 05:55:39;;;;;;;22.05;14.25;;;11.30;99.90;;;;;;4992376;28;20271;-79
2022/10/11 05:58:28;;;;;;;25.90;15.27;;;11.30;99.90;;;;;;4999374;28;20241;-80
2022/10/11 06:01:20;;;;;;;24.10;15.15;;;11.30;99.90;;;;;;5002772;28;20234;-81
2022/10/11 06:04:10;;;;;;;24.50;14.25;;;11.30;99.90;;;;;;5002727;28;20226;-80
2022/10/11 06:06:59;;;;;;;22.08;14.98;;;11.40;99.90;;;;;;4996401;28;20222;-80
2022/10/11 06:09:48;;;;;;;28.38;15.50;;;11.50;99.90;;;;;;5003102;28;20229;-82
2022/10/11 06:12:37;;;;;;;22.98;15.02;;;11.60;99.90;;;;;;5010734;28;20676;-81
2022/10/11 06:15:26;;;;;;;27.85;15.95;;;11.60;99.90;;;;;;5007565;28;20222;-86
2022/10/11 06:18:16;;;;;;;27.80;16.23;;;11.70;99.90;;;;;;5002311;28;20295;-84
2022/10/11 06:21:05;;;;;;;25.25;15.70;;;11.70;99.90;;;;;;5005904;28;20233;-85
2022/10/11 06:23:54;;;;;;;31.27;15.50;;;11.90;99.90;;;;;;5001964;28;20222;-83
2022/10/11 06:26:48;;;;;;;22.42;14.88;;;11.90;99.90;;;;;;5022754;28;20307;-84
2022/10/11 06:29:37;;;;;;;20.90;15.15;;;12.00;99.90;;;;;;5002930;28;20246;-85
2022/10/11 06:32:27;;;;;;;21.75;14.85;;;12.00;99.90;;;;;;5000383;28;20231;-84
2022/10/11 06:35:17;;;;;;;26.63;15.57;;;12.10;99.90;;;;;;5004291;28;20234;-84
2022/10/11 06:38:06;;;;;;;24.45;16.40;;;12.20;99.90;;;;;;5001811;28;20238;-84
2022/10/11 06:40:54;;;;;;;27.75;15.32;;;12.20;99.90;;;;;;5002335;28;20225;-85
2022/10/11 06:43:43;;;;;;;23.30;15.25;;;12.40;99.90;;;;;;5002012;28;20229;-84
2022/10/11 06:46:32;;;;;;;22.40;15.45;;;12.50;99.90;;;;;;5002565;28;20680;-85
2022/10/11 06:49:21;;;;;;;25.08;15.15;;;12.60;99.90;;;;;;4999347;28;20302;-85
2022/10/11 06:52:12;;;;;;;21.67;15.32;;;12.70;99.90;;;;;;5003993;28;20235;-85
2022/10/11 06:55:01;;;;;;;24.73;15.43;;;12.80;99.90;;;;;;5003494;28;20226;-85
2022/10/11 06:57:50;;;;;;;20.33;15.55;;;12.80;99.90;;;;;;5021281;28;20732;-85
2022/10/11 07:00:39;;;;;;;19.67;15.15;;;12.90;99.90;;;;;;5026117;28;20230;-85
2022/10/11 07:03:28;;;;;;;22.30;15.95;;;13.00;99.90;;;;;;5001969;28;20222;-86
2022/10/11 07:06:20;;;;;;;22.08;15.68;;;13.00;99.90;;;;;;5000652;28;20296;-85
2022/10/11 07:09:10;;;;;;;24.23;15.73;;;13.10;99.90;;;;;;5000403;28;20229;-83
2022/10/11 07:11:58;;;;;;;24.17;17.33;;;13.20;99.90;;;;;;4988751;28;20230;-84
2022/10/11 07:14:47;;;;;;;22.92;15.35;;;13.20;99.90;;;;;;4998942;28;20299;-85
2022/10/11 07:17:36;;;;;;;24.42;16.48;;;13.30;99.90;;;;;;4992194;28;20234;-83
2022/10/11 07:20:28;;;;;;;33.65;16.35;;;13.20;99.90;;;;;;4999269;28;20978;-84
2022/10/11 07:23:18;;;;;;;27.25;15.75;;;13.20;99.90;;;;;;5013982;28;20482;-85
2022/10/11 07:26:10;;;;;;;26.05;16.63;;;13.20;99.90;;;;;;5002875;28;20309;-86
2022/10/11 07:28:59;;;;;;;23.90;16.73;;;13.40;99.90;;;;;;5001593;28;20218;-85
2022/10/11 07:31:47;;;;;;;25.75;16.35;;;13.30;99.90;;;;;;5000680;28;20218;-85
2022/10/11 07:34:36;;;;;;;27.70;16.67;;;13.40;99.90;;;;;;5000625;28;20218;-85
2022/10/11 07:37:25;;;;;;;24.52;15.98;;;13.50;99.90;;;;;;5001885;28;20240;-86
2022/10/11 07:40:14;;;;;;;21.05;16.35;;;13.60;99.90;;;;;;5001951;28;20246;-85
2022/10/11 07:43:04;;;;;;;22.35;16.17;;;13.60;99.90;;;;;;5005609;28;20221;-84
2022/10/11 07:45:54;;;;;;;20.67;15.55;;;13.80;99.90;;;;;;5005565;28;20221;-84
2022/10/11 07:48:43;;;;;;;25.27;16.05;;;14.10;99.90;;;;;;5013663;28;20237;-85
2022/10/11 07:51:33;;;;;;;22.10;16.52;;;14.20;99.90;;;;;;5018793;28;20737;-84
2022/10/11 07:54:22;;;;;;;20.25;15.75;;;14.50;99.90;;;;;;5015207;28;21012;-85
2022/10/11 07:57:10;;;;;;;19.17;15.13;;;14.40;99.90;;;;;;5000521;28;20215;-84
2022/10/11 08:00:06;;;;;;;21.98;14.23;;;14.40;99.90;;;;;;5005159;28;20222;-85
2022/10/11 08:03:01;;;;;;;21.60;14.15;;;14.50;99.90;;;;;;5006896;28;20219;-85
2022/10/11 08:05:54;;;;;;;21.10;14.35;;;14.60;99.90;;;;;;5004946;28;20317;-85
2022/10/11 08:08:43;;;;;;;20.02;14.25;;;14.70;99.90;;;;;;5022941;28;20240;-85
2022/10/11 08:11:38;;;;;;;21.73;13.68;;;14.70;99.90;;;;;;5004693;28;20229;-85
2022/10/11 08:14:27;;;;;;;18.80;13.60;;;14.60;99.90;;;;;;5000765;28;20222;-85
2022/10/11 08:17:17;;;;;;;17.75;13.73;;;14.50;99.90;;;;;;4966885;28;20222;-85
2022/10/11 08:20:07;;;;;;;23.95;14.15;;;14.60;99.90;;;;;;4991664;28;20229;-85
2022/10/11 08:22:55;;;;;;;16.83;13.00;;;14.60;99.90;;;;;;5002848;28;20218;-85
2022/10/11 08:25:47;;;;;;;19.45;12.88;;;14.60;99.90;;;;;;5000858;28;20746;-85
2022/10/11 08:28:36;;;;;;;21.92;13.45;;;14.60;99.90;;;;;;5014731;28;20237;-85
2022/10/11 08:31:28;;;;;;;18.75;13.00;;;14.50;99.90;;;;;;5002271;28;20297;-84
2022/10/11 08:34:19;;;;;;;18.08;13.30;;;14.50;99.90;;;;;;5001008;28;20259;-85
2022/10/11 08:37:11;;;;;;;22.58;13.35;;;14.70;99.90;;;;;;5005236;28;20230;-85
2022/10/11 08:40:02;;;;;;;19.52;12.57;;;14.80;99.90;;;;;;5001142;28;20570;-85
2022/10/11 08:42:56;;;;;;;18.63;12.48;;;14.80;99.90;;;;;;5003419;28;20226;-85
2022/10/11 08:45:49;;;;;;;15.57;11.77;;;14.80;99.90;;;;;;5003674;28;20678;-85
2022/10/11 08:48:41;;;;;;;18.10;11.93;;;14.70;99.90;;;;;;5002669;28;20689;-85
2022/10/11 08:51:36;;;;;;;17.45;12.38;;;14.70;99.90;;;;;;5001571;28;20241;-85
2022/10/11 08:54:35;;;;;;;16.27;11.77;;;14.70;99.90;;;;;;5012189;28;20225;-85
2022/10/11 08:57:27;;;;;;;15.00;11.13;;;14.80;99.90;;;;;;5004614;28;20238;-85
2022/10/11 09:00:19;;;;;;;23.00;11.98;;;14.90;99.90;;;;;;4999925;28;20236;-84
2022/10/11 09:03:21;;;;;;;17.55;11.45;;;15.00;99.90;;;;;;5002430;28;20737;-88
2022/10/11 09:06:20;;;;;;;14.27;11.50;;;15.00;99.90;;;;;;4996733;28;20222;-88
2022/10/11 09:09:38;;;;;;;20.77;11.15;;;15.10;99.90;;;;;;5006679;28;20314;-89
2022/10/11 09:12:34;;;;;;;14.90;10.63;;;15.10;99.90;;;;;;5004758;28;20226;-90
2022/10/11 09:15:38;;;;;;;18.15;11.00;;;15.20;99.90;;;;;;5002593;28;20226;-88
2022/10/11 09:18:41;;;;;;;18.83;10.50;;;15.30;99.90;;;;;;5015949;28;20566;-85
2022/10/11 09:21:39;;;;;;;17.02;10.75;;;15.40;99.90;;;;;;5009412;28;20236;-88
2022/10/11 09:24:59;;;;;;;15.02;9.35;;;15.40;99.90;;;;;;5014107;28;20230;-89
2022/10/11 09:28:02;;;;;;;15.02;9.45;;;15.20;99.90;;;;;;5025730;28;20643;-86
2022/10/11 09:30:54;;;;;;;11.65;8.25;;;15.20;99.90;;;;;;5002148;28;20226;-85
2022/10/11 09:33:46;;;;;;;17.98;9.63;;;15.20;99.90;;;;;;4986400;28;20226;-85
2022/10/11 09:36:41;;;;;;;12.68;8.95;;;15.30;99.90;;;;;;5013580;28;20237;-86
2022/10/11 09:39:33;;;;;;;11.88;8.55;;;15.20;99.90;;;;;;5026718;28;20748;-85
2022/10/11 09:42:23;;;;;;;12.70;8.45;;;15.20;99.90;;;;;;5000691;28;20225;-85
2022/10/11 09:45:16;;;;;;;12.43;9.40;;;15.30;99.90;;;;;;4998788;28;20235;-86
2022/10/11 09:48:07;;;;;;;15.65;9.32;;;15.30;99.90;;;;;;5001445;28;20234;-86
2022/10/11 09:51:02;;;;;;;12.10;8.50;;;15.50;99.90;;;;;;4997408;28;20214;-86
2022/10/11 09:53:54;;;;;;;13.52;8.57;;;15.50;99.90;;;;;;4997412;28;20242;-88
2022/10/11 09:56:45;;;;;;;11.55;8.55;;;15.60;99.90;;;;;;5011108;28;20225;-85
2022/10/11 09:59:36;;;;;;;11.25;7.60;;;15.50;99.90;;;;;;5021931;28;20340;-84
2022/10/11 10:02:26;;;;;;;9.57;7.30;;;15.40;99.90;;;;;;5000387;28;20221;-85
2022/10/11 10:05:19;;;;;;;10.23;7.25;;;15.40;99.90;;;;;;4998817;28;20234;-85
2022/10/11 10:08:29;;;;;;;10.77;7.13;;;15.60;99.90;;;;;;5012401;28;20577;-85
2022/10/11 10:11:19;;;;;;;9.45;6.93;;;15.50;99.90;;;;;;5000145;28;20229;-85
2022/10/11 10:14:21;;;;;;;9.18;7.03;;;15.60;99.90;;;;;;5000308;28;20210;-85
2022/10/11 10:17:17;;;;;;;8.48;6.65;;;15.40;99.90;;;;;;5012841;28;20273;-81
2022/10/11 10:20:07;;;;;;;13.68;6.20;;;15.40;99.90;;;;;;5027053;28;20218;-84
2022/10/11 10:22:56;;;;;;;9.63;5.25;;;15.60;99.90;;;;;;5002363;28;20581;-85
2022/10/11 10:25:49;;;;;;;13.13;5.10;;;15.50;99.90;;;;;;5000026;28;20245;-84
2022/10/11 10:28:39;;;;;;;9.98;4.97;;;15.30;99.90;;;;;;4994707;28;20237;-85
2022/10/11 10:31:37;;;;;;;7.45;4.47;;;15.30;99.90;;;;;;5000533;28;20307;-83
2022/10/11 10:34:58;;;;;;;7.97;4.68;;;15.50;99.90;;;;;;4999258;28;20304;-84
2022/10/11 10:37:53;;;;;;;9.20;4.70;;;15.80;99.90;;;;;;4999058;28;20238;-84
2022/10/11 10:40:44;;;;;;;9.00;4.60;;;16.00;99.90;;;;;;4982227;28;20233;-84
2022/10/11 10:43:35;;;;;;;7.35;3.85;;;16.00;99.90;;;;;;5000167;28;20946;-83
2022/10/11 10:46:41;;;;;;;7.40;3.45;;;16.00;99.90;;;;;;4996372;28;20214;-83
2022/10/11 10:49:40;;;;;;;6.35;3.15;;;15.90;99.90;;;;;;4998454;28;20245;-83
2022/10/11 10:53:03;;;;;;;8.40;4.00;;;15.90;99.90;;;;;;5004526;28;20222;-84
2022/10/11 10:55:59;;;;;;;10.30;3.60;;;15.80;99.90;;;;;;5002729;28;20754;-82
2022/10/11 10:59:03;;;;;;;5.22;3.60;;;15.90;99.90;;;;;;4989082;28;20329;-83
2022/10/11 11:01:57;;;;;;;6.38;3.22;;;16.10;99.90;;;;;;5001820;28;20248;-83
2022/10/11 11:05:15;;;;;;;5.97;2.95;;;16.20;99.90;;;;;;5022105;28;20317;-82
2022/10/11 11:08:13;;;;;;;11.15;4.60;;;16.00;99.90;;;;;;4999713;28;20226;-83
2022/10/11 11:11:11;;;;;;;6.93;3.15;;;15.90;99.90;;;;;;4998210;28;20239;-83
2022/10/11 11:14:09;;;;;;;4.38;2.60;;;15.60;99.90;;;;;;4997276;28;20233;-83
2022/10/11 11:17:06;;;;;;;3.97;2.70;;;15.50;99.90;;;;;;4984151;28;20728;-83
2022/10/11 11:20:08;;;;;;;7.50;2.60;;;15.30;99.90;;;;;;5011786;28;20214;-83
2022/10/11 11:23:04;;;;;;;8.95;2.83;;;15.20;99.90;;;;;;5000845;28;20586;-83
2022/10/11 11:26:03;;;;;;;8.80;2.58;;;15.20;99.90;;;;;;4997740;28;20323;-85
2022/10/11 11:29:14;;;;;;;4.85;2.67;;;15.20;99.90;;;;;;4996869;28;20854;-83
2022/10/11 11:32:18;;;;;;;11.05;2.72;;;15.20;99.90;;;;;;5001507;28;20340;-83
2022/10/11 11:35:16;;;;;;;5.28;2.53;;;15.40;99.90;;;;;;5000145;28;20335;-82
2022/10/11 11:38:13;;;;;;;5.05;2.70;;;15.40;99.90;;;;;;4999747;28;20217;-83
2022/10/11 11:41:10;;;;;;;7.60;2.90;;;15.30;99.90;;;;;;5011608;28;20218;-83
2022/10/11 11:44:02;;;;;;;9.07;3.17;;;15.50;99.90;;;;;;4980998;28;20215;-83
2022/10/11 11:46:55;;;;;;;4.95;2.53;;;15.70;99.90;;;;;;5015177;28;20237;-84
2022/10/11 11:49:49;;;;;;;8.50;3.05;;;15.90;99.90;;;;;;4998010;28;20736;-82
2022/10/11 11:52:43;;;;;;;6.32;2.90;;;15.80;99.90;;;;;;4995177;28;20230;-84
2022/10/11 11:55:44;;;;;;;8.85;4.13;;;15.70;99.90;;;;;;5001891;28;20222;-86
2022/10/11 11:58:44;;;;;;;8.48;2.80;;;15.80;99.90;;;;;;5011302;28;20227;-84
2022/10/11 12:01:37;;;;;;;6.47;2.30;;;15.60;99.90;;;;;;5009457;28;20222;-84
2022/10/11 12:04:29;;;;;;;4.30;1.92;;;15.60;99.90;;;;;;5001888;28;20218;-84
2022/10/11 12:07:21;;;;;;;4.82;1.95;;;15.50;99.90;;;;;;4999685;28;20276;-82
2022/10/11 12:10:22;;;;;;;5.07;2.30;;;15.50;99.90;;;;;;5000051;28;20223;-83
2022/10/11 12:13:20;;;;;;;4.10;1.88;;;15.60;99.90;;;;;;4998957;28;20225;-83
2022/10/11 12:16:13;;;;;;;6.72;2.13;;;15.80;99.90;;;;;;5001390;28;20783;-82
2022/10/11 12:19:04;;;;;;;5.47;2.25;;;15.90;99.90;;;;;;5000595;28;20505;-82
2022/10/11 12:22:35;;;;;;;8.23;3.58;;;15.90;99.90;;;;;;5009098;28;20701;-82
2022/10/11 12:25:43;;;;;;;4.57;2.08;;;15.90;99.90;;;;;;5002992;28;20280;-82
2022/10/11 12:29:02;;;;;;;6.72;2.05;;;15.90;99.90;;;;;;5003621;28;20316;-82
2022/10/11 12:32:32;;;;;;;5.80;2.00;;;15.80;99.90;;;;;;5002974;28;20222;-82
2022/10/11 12:35:47;;;;;;;7.32;2.30;;;15.80;99.90;;;;;;5028487;28;20229;-82
2022/10/11 12:38:38;;;;;;;6.47;2.15;;;15.60;99.90;;;;;;5006111;28;20226;-82
2022/10/11 12:41:50;;;;;;;7.80;3.05;;;15.60;99.90;;;;;;5002399;28;20221;-81
2022/10/11 12:44:39;;;;;;;7.15;3.00;;;15.50;99.90;;;;;;5003980;28;20951;-85
2022/10/11 12:47:42;;;;;;;7.88;2.30;;;15.50;99.90;;;;;;5002648;28;20222;-81
2022/10/11 12:50:39;;;;;;;11.00;2.42;;;15.40;99.90;;;;;;5005017;28;20286;-81
2022/10/11 12:53:40;;;;;;;7.43;2.22;;;15.30;99.90;;;;;;5003140;28;20233;-81
2022/10/11 12:56:43;;;;;;;7.50;2.20;;;15.30;99.90;;;;;;4997597;28;20234;-83
2022/10/11 12:59:32;;;;;;;10.10;2.42;;;15.20;99.90;;;;;;4999385;28;20724;-80
2022/10/11 13:02:28;;;;;;;6.63;1.95;;;15.20;99.90;;;;;;5002511;28;20241;-78
2022/10/11 13:05:25;;;;;;;6.93;1.95;;;15.20;99.90;;;;;;4986180;28;20321;-81
2022/10/11 13:08:18;;;;;;;8.52;2.17;;;15.20;99.90;;;;;;4993871;28;20225;-78
2022/10/11 13:11:11;;;;;;;10.55;2.40;;;15.20;99.90;;;;;;5003310;28;20218;-81
2022/10/11 13:14:09;;;;;;;7.43;2.97;;;15.30;99.90;;;;;;5000709;28;20234;-79
2022/10/11 13:17:04;;;;;;;8.30;2.10;;;15.20;99.90;;;;;;5000648;28;20234;-79
2022/10/11 13:20:00;;;;;;;7.22;2.40;;;15.20;99.90;;;;;;5004036;28;20233;-81
2022/10/11 13:22:52;;;;;;;7.20;2.28;;;15.20;99.90;;;;;;4996559;28;20234;-80
2022/10/11 13:25:42;;;;;;;6.63;2.00;;;15.20;99.90;;;;;;5004212;28;20226;-81
2022/10/11 13:28:31;;;;;;;9.95;2.65;;;15.20;99.90;;;;;;5001053;28;20218;-81
2022/10/11 13:31:24;;;;;;;8.77;2.20;;;15.30;99.90;;;;;;5002580;28;20230;-80
2022/10/11 13:34:14;;;;;;;7.72;2.10;;;15.30;99.90;;;;;;5002950;28;20218;-80
2022/10/11 13:37:08;;;;;;;4.60;2.08;;;15.30;99.90;;;;;;4999671;28;20245;-81
2022/10/11 13:39:58;;;;;;;7.68;2.13;;;15.30;99.90;;;;;;5015292;28;20215;-81
2022/10/11 13:42:49;;;;;;;7.40;2.08;;;15.20;99.90;;;;;;4992520;28;20221;-81
2022/10/11 13:45:40;;;;;;;9.45;4.72;;;15.30;99.90;;;;;;4998564;28;20677;-82
2022/10/11 13:48:29;;;;;;;7.32;3.22;;;15.30;99.90;;;;;;5005652;28;20219;-80
2022/10/11 13:51:34;;;;;;;8.02;2.40;;;15.30;99.90;;;;;;5027947;28;20700;-80
2022/10/11 13:54:23;;;;;;;9.02;2.30;;;15.20;99.90;;;;;;5001656;28;20225;-81
2022/10/11 13:57:13;;;;;;;9.02;2.35;;;15.30;99.90;;;;;;5001528;28;20222;-82
2022/10/11 14:00:07;;;;;;;8.20;2.35;;;15.30;99.90;;;;;;5000985;28;20763;-79
2022/10/11 14:03:02;;;;;;;7.60;1.83;;;15.20;99.90;;;;;;5000758;28;20384;-79
2022/10/11 14:05:56;;;;;;;8.00;2.13;;;15.10;99.90;;;;;;4984286;28;20237;-80
2022/10/11 14:08:47;;;;;;;7.13;2.30;;;15.10;99.90;;;;;;4993057;28;20245;-81
2022/10/11 14:11:38;;;;;;;7.78;1.85;;;15.10;99.90;;;;;;4979201;28;20579;-82
2022/10/11 14:14:42;;;;;;;6.47;2.10;;;15.10;99.90;;;;;;5000933;28;20233;-80
2022/10/11 14:17:41;;;;;;;6.65;2.40;;;15.10;99.90;;;;;;4996229;28;20712;-80
2022/10/11 14:20:39;;;;;;;9.93;2.17;;;15.10;99.90;;;;;;5003729;28;20222;-80
2022/10/11 14:23:27;;;;;;;3.45;1.67;;;15.10;99.90;;;;;;4996611;28;20226;-80
2022/10/11 14:26:17;;;;;;;7.35;1.95;;;15.00;99.90;;;;;;4964178;28;20219;-79
2022/10/11 14:29:12;;;;;;;6.10;2.00;;;15.00;99.90;;;;;;5001123;28;20218;-79
2022/10/11 14:32:05;;;;;;;8.85;2.38;;;15.00;99.90;;;;;;4999516;28;20234;-80
2022/10/11 14:34:53;;;;;;;9.93;2.30;;;15.00;99.90;;;;;;4992101;28;20223;-80
2022/10/11 14:37:42;;;;;;;12.43;2.75;;;15.00;99.90;;;;;;4993457;28;20233;-79
2022/10/11 14:40:31;;;;;;;10.38;2.97;;;14.90;99.90;;;;;;5000785;28;20730;-80
2022/10/11 14:43:20;;;;;;;9.23;2.35;;;14.80;99.90;;;;;;4995072;28;20238;-79
2022/10/11 14:46:18;;;;;;;10.00;2.55;;;14.90;99.90;;;;;;4997579;28;20215;-80
2022/10/11 14:49:14;;;;;;;7.88;2.95;;;14.90;99.90;;;;;;5002008;28;20229;-77